Time;durP1;ratioP1;P1;durP2;ratioP2;P2;SDS_P1;SDS_P2;PMS_P1;PMS_P2;Temp;Humidity;BMP_temperature;BMP_pressure;BME280_temperature;BME280_humidity;BME280_pressure;Samples;Min_cycle;Max_cycle;Signal;HPM_P1;HPM_P2
2021/06/17 00:00:56;;;;;;;6.00;2.97;;;23.10;95.80;;;;;;5027551;28;20038;-68
2021/06/17 00:03:22;;;;;;;6.82;3.22;;;23.00;96.20;;;;;;5027103;28;20068;-68
2021/06/17 00:05:47;;;;;;;6.60;2.63;;;22.90;96.60;;;;;;5028228;28;20029;-69
2021/06/17 00:08:13;;;;;;;4.88;2.40;;;22.90;97.10;;;;;;5026437;28;20037;-68
2021/06/17 00:10:49;;;;;;;6.10;2.95;;;22.80;97.60;;;;;;5027256;28;20032;-68
2021/06/17 00:13:18;;;;;;;6.63;2.90;;;22.70;98.30;;;;;;5022843;28;20448;-70
2021/06/17 00:15:47;;;;;;;6.60;2.80;;;22.60;98.80;;;;;;5024213;28;20064;-66
2021/06/17 00:18:13;;;;;;;7.63;2.88;;;22.60;99.20;;;;;;5027020;28;20049;-69
2021/06/17 00:20:40;;;;;;;4.45;2.65;;;22.50;99.70;;;;;;5026838;28;20038;-67
2021/06/17 00:23:07;;;;;;;7.03;3.25;;;22.50;99.90;;;;;;5027196;28;20562;-70
2021/06/17 00:25:33;;;;;;;7.20;3.03;;;22.50;99.90;;;;;;5026908;28;20116;-68
2021/06/17 00:27:59;;;;;;;7.55;3.40;;;22.50;99.90;;;;;;5027736;28;20053;-68
2021/06/17 00:30:25;;;;;;;7.15;3.33;;;22.50;99.90;;;;;;5008407;28;20057;-68
2021/06/17 00:32:51;;;;;;;7.40;3.13;;;22.50;99.90;;;;;;5026925;28;20553;-69
2021/06/17 00:35:18;;;;;;;6.13;3.35;;;22.50;99.90;;;;;;5027062;28;20068;-68
2021/06/17 00:37:43;;;;;;;14.82;4.25;;;22.50;99.90;;;;;;5023078;28;20103;-68
2021/06/17 00:40:12;;;;;;;5.45;3.55;;;22.50;99.90;;;;;;5027120;28;20029;-69
2021/06/17 00:42:39;;;;;;;5.50;4.00;;;22.50;99.90;;;;;;5025892;28;20614;-68
2021/06/17 00:45:09;;;;;;;9.48;4.20;;;22.50;99.90;;;;;;5009692;28;20694;-68
2021/06/17 00:47:35;;;;;;;11.98;3.83;;;22.50;99.90;;;;;;5026473;28;20037;-69
2021/06/17 00:50:03;;;;;;;7.80;3.40;;;22.50;99.90;;;;;;5028629;28;20028;-66
2021/06/17 00:52:29;;;;;;;9.10;4.35;;;22.50;99.90;;;;;;5035897;28;20022;-68
2021/06/17 00:54:58;;;;;;;7.25;4.03;;;22.40;99.90;;;;;;5036465;28;20029;-68
2021/06/17 00:57:23;;;;;;;5.18;3.22;;;22.40;99.90;;;;;;5017496;28;20038;-68
2021/06/17 00:59:49;;;;;;;11.93;4.25;;;22.40;99.90;;;;;;5026742;28;20102;-67
2021/06/17 01:02:15;;;;;;;6.95;4.30;;;22.30;99.90;;;;;;5026473;28;20040;-68
2021/06/17 01:04:41;;;;;;;5.95;3.28;;;22.30;99.90;;;;;;5040717;28;20045;-68
2021/06/17 01:07:06;;;;;;;7.85;3.38;;;22.20;99.90;;;;;;5026534;28;20045;-69
2021/06/17 01:10:08;;;;;;;7.25;3.42;;;22.20;99.90;;;;;;5022351;28;20478;-68
2021/06/17 01:12:56;;;;;;;7.03;4.03;;;22.20;99.90;;;;;;5024078;28;20057;-69
2021/06/17 01:15:23;;;;;;;8.10;4.47;;;22.20;99.90;;;;;;5005879;28;20476;-68
2021/06/17 01:17:55;;;;;;;7.43;4.38;;;22.30;99.90;;;;;;5026310;28;20034;-67
2021/06/17 01:20:29;;;;;;;10.63;4.32;;;22.30;99.90;;;;;;5025794;28;20710;-67
2021/06/17 01:23:31;;;;;;;9.27;4.47;;;22.40;99.90;;;;;;5026269;28;20045;-67
2021/06/17 01:26:35;;;;;;;9.68;4.50;;;22.30;99.90;;;;;;5022265;28;20060;-67
2021/06/17 01:29:02;;;;;;;6.20;3.95;;;22.30;99.90;;;;;;4970657;28;20108;-68
2021/06/17 01:31:32;;;;;;;9.02;4.30;;;22.20;99.90;;;;;;5025685;28;20041;-68
2021/06/17 01:33:59;;;;;;;10.00;4.97;;;22.20;99.90;;;;;;5025745;28;20029;-67
2021/06/17 01:36:31;;;;;;;9.48;4.22;;;22.10;99.90;;;;;;5026001;28;20068;-68
2021/06/17 01:38:59;;;;;;;6.63;4.20;;;22.10;99.90;;;;;;5025533;28;20025;-67
2021/06/17 01:41:29;;;;;;;9.23;4.90;;;22.00;99.90;;;;;;5025565;28;20056;-67
2021/06/17 01:43:56;;;;;;;8.55;4.70;;;22.00;99.90;;;;;;5025904;28;20033;-67
2021/06/17 01:46:22;;;;;;;11.35;4.72;;;21.90;99.90;;;;;;5025240;28;20123;-67
2021/06/17 01:48:52;;;;;;;8.15;3.90;;;21.90;99.90;;;;;;5024904;28;20026;-67
2021/06/17 01:51:24;;;;;;;7.07;5.03;;;21.90;99.90;;;;;;5024525;28;20481;-67
2021/06/17 01:53:50;;;;;;;10.00;5.38;;;21.90;99.90;;;;;;5025789;28;20386;-65
2021/06/17 01:56:21;;;;;;;11.30;5.65;;;21.90;99.90;;;;;;5025155;28;20047;-66
2021/06/17 01:58:47;;;;;;;10.98;5.75;;;22.10;99.90;;;;;;5020593;28;20127;-67
2021/06/17 02:01:17;;;;;;;11.18;5.13;;;22.20;99.90;;;;;;5024614;28;20534;-65
2021/06/17 02:03:47;;;;;;;9.40;5.38;;;22.20;99.90;;;;;;5020801;28;20631;-69
2021/06/17 02:06:17;;;;;;;15.05;5.90;;;22.40;99.90;;;;;;5021591;28;20454;-69
2021/06/17 02:08:45;;;;;;;9.88;5.35;;;22.40;99.90;;;;;;5018645;28;20041;-70
2021/06/17 02:11:12;;;;;;;10.73;6.22;;;22.40;99.90;;;;;;5021309;28;20038;-69
2021/06/17 02:13:38;;;;;;;11.48;6.05;;;22.50;99.90;;;;;;5025248;28;20029;-68
2021/06/17 02:16:05;;;;;;;11.27;5.45;;;22.50;99.90;;;;;;5025686;28;20033;-67
2021/06/17 02:18:33;;;;;;;12.88;6.47;;;22.50;99.90;;;;;;5028584;28;20438;-66
2021/06/17 02:20:59;;;;;;;11.80;5.93;;;22.50;99.90;;;;;;5028154;28;20030;-67
2021/06/17 02:23:29;;;;;;;11.02;6.22;;;22.40;99.90;;;;;;5029271;28;20067;-66
2021/06/17 02:25:56;;;;;;;13.20;6.00;;;22.40;99.90;;;;;;5027895;28;20037;-67
2021/06/17 02:28:24;;;;;;;10.80;5.80;;;22.40;99.90;;;;;;5028551;28;20072;-68
2021/06/17 02:30:52;;;;;;;11.73;5.82;;;22.30;99.90;;;;;;5028440;28;20041;-67
2021/06/17 02:33:20;;;;;;;10.60;6.30;;;22.30;99.90;;;;;;5028141;28;20705;-67
2021/06/17 02:35:49;;;;;;;10.52;6.55;;;22.30;99.90;;;;;;5028796;28;20033;-67
2021/06/17 02:38:16;;;;;;;12.77;5.88;;;22.30;99.90;;;;;;5027153;28;20394;-67
2021/06/17 02:40:45;;;;;;;8.95;5.97;;;22.40;99.90;;;;;;5029677;28;20037;-67
2021/06/17 02:43:20;;;;;;;11.10;6.33;;;22.30;99.90;;;;;;5027503;28;20052;-67
2021/06/17 02:45:47;;;;;;;12.35;5.97;;;22.30;99.90;;;;;;5028761;28;20030;-67
2021/06/17 02:48:13;;;;;;;10.07;5.55;;;22.30;99.90;;;;;;5028821;28;20130;-67
2021/06/17 02:50:40;;;;;;;11.85;5.82;;;22.30;99.90;;;;;;5027374;28;20033;-66
2021/06/17 02:53:05;;;;;;;10.98;6.10;;;22.30;99.90;;;;;;5028790;28;20167;-69
2021/06/17 02:55:31;;;;;;;8.73;5.25;;;22.30;99.90;;;;;;5024645;28;20240;-67
2021/06/17 02:58:45;;;;;;;11.20;6.10;;;22.30;99.90;;;;;;5027200;28;20052;-67
2021/06/17 03:01:30;;;;;;;10.15;6.05;;;22.40;99.90;;;;;;4936217;29;20059;-69
2021/06/17 03:03:59;;;;;;;11.95;6.25;;;22.40;99.90;;;;;;4940094;29;20048;-68
2021/06/17 03:06:33;;;;;;;11.60;5.70;;;22.40;99.90;;;;;;4921973;29;20046;-66
2021/06/17 03:09:09;;;;;;;8.43;5.88;;;22.50;99.90;;;;;;4938825;29;20046;-66
2021/06/17 03:11:36;;;;;;;11.55;5.93;;;22.50;99.90;;;;;;4948271;28;20478;-66
2021/06/17 03:14:08;;;;;;;9.30;6.03;;;22.50;99.90;;;;;;5027108;28;20033;-66
2021/06/17 03:16:37;;;;;;;11.30;5.38;;;22.50;99.90;;;;;;5024164;28;20557;-66
2021/06/17 03:19:04;;;;;;;10.23;5.85;;;22.50;99.90;;;;;;5021067;28;20033;-66
2021/06/17 03:21:35;;;;;;;20.15;5.78;;;22.50;99.90;;;;;;5027921;28;20389;-66
2021/06/17 03:24:03;;;;;;;9.93;5.53;;;22.50;99.90;;;;;;5028156;28;20509;-66
2021/06/17 03:26:30;;;;;;;8.68;6.00;;;22.50;99.90;;;;;;5021252;28;20038;-66
2021/06/17 03:28:57;;;;;;;10.57;5.68;;;22.50;99.90;;;;;;5020602;28;20069;-66
2021/06/17 03:31:25;;;;;;;11.68;5.65;;;22.40;99.90;;;;;;5027489;28;20029;-66
2021/06/17 03:33:53;;;;;;;12.88;5.93;;;22.40;99.90;;;;;;5028960;28;20048;-66
2021/06/17 03:36:19;;;;;;;10.68;5.90;;;22.50;99.90;;;;;;5026221;28;20029;-66
2021/06/17 03:38:47;;;;;;;12.25;6.10;;;22.40;99.90;;;;;;5022039;28;20029;-66
2021/06/17 03:41:14;;;;;;;12.65;5.97;;;22.50;99.90;;;;;;5027026;28;20037;-66
2021/06/17 03:43:41;;;;;;;12.38;6.60;;;22.50;99.90;;;;;;5024319;28;20065;-66
2021/06/17 03:46:09;;;;;;;12.13;5.88;;;22.60;99.90;;;;;;5023370;28;20582;-66
2021/06/17 03:48:38;;;;;;;12.00;6.25;;;22.60;99.90;;;;;;5024946;28;20554;-66
2021/06/17 03:51:06;;;;;;;8.95;5.45;;;22.60;99.90;;;;;;5015693;28;20542;-66
2021/06/17 03:53:32;;;;;;;12.52;5.95;;;22.60;99.90;;;;;;5024357;28;20041;-66
2021/06/17 03:55:58;;;;;;;12.68;6.63;;;22.60;99.90;;;;;;5023595;28;20029;-66
2021/06/17 03:58:25;;;;;;;8.77;5.25;;;22.50;99.90;;;;;;5027560;28;20041;-66
2021/06/17 04:00:54;;;;;;;13.98;5.93;;;22.50;99.90;;;;;;5027122;28;20044;-66
2021/06/17 04:03:20;;;;;;;12.27;5.82;;;22.50;99.90;;;;;;5025729;28;20037;-66
2021/06/17 04:05:47;;;;;;;9.90;5.47;;;22.40;99.90;;;;;;5003161;28;20057;-66
2021/06/17 04:08:15;;;;;;;11.15;5.55;;;22.50;99.90;;;;;;5023230;28;20111;-66
2021/06/17 04:10:42;;;;;;;11.85;5.72;;;22.50;99.90;;;;;;5020869;28;20018;-66
2021/06/17 04:13:11;;;;;;;13.88;6.55;;;22.60;99.90;;;;;;5026759;28;20406;-66
2021/06/17 04:15:37;;;;;;;16.52;6.40;;;22.60;99.90;;;;;;5023975;28;20068;-66
2021/06/17 04:18:04;;;;;;;13.70;6.25;;;22.70;99.90;;;;;;5028065;28;20033;-66
2021/06/17 04:20:39;;;;;;;11.75;6.70;;;22.80;99.90;;;;;;5028418;28;20075;-66
2021/06/17 04:23:06;;;;;;;11.93;6.78;;;22.80;99.90;;;;;;5028205;28;20180;-66
2021/06/17 04:25:33;;;;;;;10.68;6.35;;;22.80;99.90;;;;;;5024981;28;20116;-66
2021/06/17 04:28:01;;;;;;;12.27;7.50;;;22.80;99.90;;;;;;5029045;28;20036;-66
2021/06/17 04:30:28;;;;;;;10.75;6.43;;;22.70;99.90;;;;;;5026968;28;20040;-66
2021/06/17 04:32:59;;;;;;;18.42;7.28;;;22.70;99.90;;;;;;5023442;28;20022;-66
2021/06/17 04:35:26;;;;;;;10.40;6.60;;;22.70;99.90;;;;;;5022888;28;20151;-67
2021/06/17 04:37:52;;;;;;;13.70;6.68;;;22.80;99.90;;;;;;5023903;28;20037;-66
2021/06/17 04:40:21;;;;;;;19.17;8.02;;;22.80;99.90;;;;;;5008411;28;20041;-67
2021/06/17 04:42:49;;;;;;;11.07;7.10;;;22.80;99.90;;;;;;5026369;28;20033;-67
2021/06/17 04:45:15;;;;;;;13.35;7.85;;;22.90;99.90;;;;;;5026650;28;20041;-65
2021/06/17 04:47:48;;;;;;;11.70;7.30;;;22.90;99.90;;;;;;5008982;28;20034;-65
2021/06/17 04:50:15;;;;;;;14.20;7.32;;;22.90;99.90;;;;;;5023424;28;20490;-66
2021/06/17 04:52:49;;;;;;;14.05;7.68;;;23.00;99.90;;;;;;5026055;28;20036;-66
2021/06/17 04:55:14;;;;;;;15.55;7.90;;;23.00;99.90;;;;;;5042084;28;20034;-66
2021/06/17 04:57:40;;;;;;;11.68;7.57;;;23.00;99.90;;;;;;5026976;28;20037;-66
2021/06/17 05:00:06;;;;;;;12.60;8.27;;;23.10;99.90;;;;;;5026661;28;20033;-65
2021/06/17 05:02:32;;;;;;;16.80;8.45;;;23.10;99.90;;;;;;5026168;28;20084;-65
2021/06/17 05:04:57;;;;;;;14.90;8.23;;;23.20;99.90;;;;;;5020942;28;20128;-65
2021/06/17 05:12:49;;;;;;;16.23;8.48;;;23.20;99.90;;;;;;5021706;28;20567;-67
2021/06/17 05:15:16;;;;;;;14.48;7.05;;;23.20;99.90;;;;;;5023978;28;20041;-66
2021/06/17 05:17:42;;;;;;;20.60;7.20;;;23.30;99.90;;;;;;5021498;28;20513;-66
2021/06/17 05:20:09;;;;;;;10.73;7.57;;;23.30;99.90;;;;;;5021238;28;20061;-66
2021/06/17 05:22:35;;;;;;;11.95;7.32;;;23.30;99.90;;;;;;5003706;28;20038;-66
2021/06/17 05:25:01;;;;;;;13.77;7.72;;;23.50;99.90;;;;;;5021473;28;20041;-66
2021/06/17 05:27:27;;;;;;;16.00;7.38;;;23.60;99.90;;;;;;5020944;28;20116;-66
2021/06/17 05:29:53;;;;;;;15.02;9.15;;;23.60;99.90;;;;;;5003587;28;20136;-66
2021/06/17 05:32:19;;;;;;;17.92;7.53;;;23.70;99.90;;;;;;5021694;28;20045;-65
2021/06/17 05:34:45;;;;;;;13.98;7.13;;;23.70;99.90;;;;;;5021456;28;20045;-65
2021/06/17 05:37:11;;;;;;;13.40;8.10;;;23.90;99.90;;;;;;5021343;28;20053;-65
2021/06/17 05:39:37;;;;;;;17.05;7.43;;;24.00;99.90;;;;;;5038388;28;20099;-65
2021/06/17 05:42:04;;;;;;;12.07;7.40;;;24.10;99.90;;;;;;5018632;28;20069;-65
2021/06/17 05:44:29;;;;;;;16.42;7.32;;;24.20;99.90;;;;;;5021902;28;20808;-65
2021/06/17 05:46:55;;;;;;;14.93;7.20;;;24.30;99.90;;;;;;5021565;28;20091;-66
2021/06/17 05:49:24;;;;;;;15.93;7.70;;;24.50;99.90;;;;;;5021226;28;20837;-65
2021/06/17 05:51:50;;;;;;;19.42;7.70;;;24.50;99.90;;;;;;5020373;28;20091;-65
2021/06/17 05:54:17;;;;;;;13.23;7.35;;;24.70;99.90;;;;;;5021843;28;20046;-65
2021/06/17 05:56:42;;;;;;;13.68;6.75;;;24.90;99.50;;;;;;5020942;28;20041;-67
2021/06/17 05:59:08;;;;;;;10.73;6.65;;;25.00;99.20;;;;;;5020963;28;20034;-66
2021/06/17 06:01:33;;;;;;;15.73;7.00;;;25.20;98.60;;;;;;5020994;28;20116;-66
2021/06/17 06:03:59;;;;;;;10.48;6.95;;;25.20;98.40;;;;;;5020833;28;20072;-64
2021/06/17 06:06:24;;;;;;;12.32;5.90;;;25.40;98.00;;;;;;5020470;28;20025;-65
2021/06/17 06:08:50;;;;;;;12.82;6.60;;;25.60;98.00;;;;;;5020974;28;20049;-65
2021/06/17 06:11:15;;;;;;;11.90;6.93;;;25.80;97.60;;;;;;5020302;28;20096;-65
2021/06/17 06:13:42;;;;;;;9.48;6.75;;;26.20;96.30;;;;;;5019830;28;20103;-66
2021/06/17 06:16:07;;;;;;;12.13;5.82;;;26.40;96.00;;;;;;5025506;28;20597;-69
2021/06/17 06:18:34;;;;;;;10.07;6.05;;;26.80;94.90;;;;;;5046177;28;20034;-69
2021/06/17 06:21:00;;;;;;;11.18;5.95;;;26.90;94.30;;;;;;5007971;28;20034;-68
2021/06/17 06:23:27;;;;;;;11.90;6.05;;;26.70;93.90;;;;;;5024776;28;20041;-69
2021/06/17 06:25:53;;;;;;;8.85;5.35;;;26.60;93.30;;;;;;5022926;28;20638;-68
2021/06/17 06:28:20;;;;;;;12.32;5.50;;;26.50;93.20;;;;;;5022726;28;20041;-68
2021/06/17 06:30:48;;;;;;;12.55;5.95;;;26.30;93.40;;;;;;5022827;28;20144;-64
2021/06/17 06:33:14;;;;;;;11.57;5.85;;;26.20;93.80;;;;;;5023179;28;20045;-64
2021/06/17 06:35:40;;;;;;;10.35;5.88;;;26.00;94.00;;;;;;5024674;28;20037;-66
2021/06/17 06:38:06;;;;;;;19.95;5.85;;;25.80;94.40;;;;;;5021697;28;20111;-64
2021/06/17 06:40:33;;;;;;;9.35;5.78;;;25.70;94.60;;;;;;5022050;28;20038;-66
2021/06/17 06:42:59;;;;;;;15.20;6.28;;;25.60;94.60;;;;;;5023200;28;20385;-65
2021/06/17 06:45:25;;;;;;;11.38;5.40;;;25.50;94.80;;;;;;5025476;28;20030;-69
2021/06/17 06:47:51;;;;;;;11.90;5.28;;;25.40;94.90;;;;;;5026608;28;20095;-70
2021/06/17 06:50:18;;;;;;;16.98;6.15;;;25.40;95.00;;;;;;5028841;28;20042;-70
2021/06/17 06:52:44;;;;;;;11.52;5.68;;;25.40;94.70;;;;;;5025194;28;20018;-66
2021/06/17 06:55:11;;;;;;;11.23;5.20;;;25.30;94.40;;;;;;5024985;28;20037;-66
2021/06/17 06:57:37;;;;;;;9.88;4.22;;;25.40;94.60;;;;;;5024312;28;20033;-66
2021/06/17 07:00:06;;;;;;;10.60;5.13;;;25.70;93.30;;;;;;5023863;28;20034;-66
2021/06/17 07:02:33;;;;;;;8.43;4.28;;;26.00;92.70;;;;;;5025086;28;20331;-67
2021/06/17 07:04:59;;;;;;;7.00;4.25;;;26.30;92.00;;;;;;5028694;28;20119;-69
2021/06/17 07:07:25;;;;;;;8.88;3.55;;;26.50;91.60;;;;;;5028775;28;20045;-66
2021/06/17 07:09:51;;;;;;;6.75;4.10;;;26.80;91.40;;;;;;5029020;28;20456;-64
2021/06/17 07:12:17;;;;;;;9.55;3.63;;;26.80;91.60;;;;;;5026341;28;20176;-64
2021/06/17 07:14:43;;;;;;;6.50;3.15;;;26.90;90.90;;;;;;5029433;28;20120;-67
2021/06/17 07:17:09;;;;;;;7.28;2.85;;;26.80;90.80;;;;;;5025782;28;20565;-68
2021/06/17 07:19:35;;;;;;;4.05;2.83;;;27.30;90.60;;;;;;5026924;28;20044;-70
2021/06/17 07:22:00;;;;;;;9.23;3.05;;;27.90;90.40;;;;;;5023756;28;20044;-70
2021/06/17 07:24:26;;;;;;;8.65;2.90;;;29.10;86.30;;;;;;5024587;28;20037;-70
2021/06/17 07:26:52;;;;;;;8.85;2.95;;;30.40;83.90;;;;;;5023552;28;20043;-71
2021/06/17 07:29:18;;;;;;;6.88;3.17;;;31.40;79.60;;;;;;5024418;28;20040;-71
2021/06/17 07:31:44;;;;;;;7.72;2.53;;;32.70;76.50;;;;;;5024068;28;20078;-71
2021/06/17 07:34:11;;;;;;;6.22;2.83;;;33.40;72.00;;;;;;5023974;28;20040;-71
2021/06/17 07:36:38;;;;;;;11.25;4.00;;;34.20;68.10;;;;;;5027520;28;20425;-70
2021/06/17 07:39:06;;;;;;;8.05;2.97;;;34.80;66.20;;;;;;5024402;28;20556;-69
2021/06/17 07:41:32;;;;;;;7.78;3.03;;;35.50;64.30;;;;;;5023555;28;20117;-69
2021/06/17 07:43:59;;;;;;;7.78;2.78;;;35.90;62.50;;;;;;5024447;28;20053;-70
2021/06/17 07:46:26;;;;;;;8.70;3.20;;;36.20;61.00;;;;;;5024161;28;20090;-70
2021/06/17 07:48:51;;;;;;;7.28;2.65;;;36.60;59.40;;;;;;5026114;28;20037;-69
2021/06/17 07:51:17;;;;;;;5.43;2.50;;;37.00;57.50;;;;;;5026581;28;20163;-70
2021/06/17 07:53:42;;;;;;;7.18;3.22;;;37.40;57.90;;;;;;5027060;28;20049;-69
2021/06/17 07:56:09;;;;;;;6.97;2.65;;;37.50;56.20;;;;;;5023945;28;20030;-70
2021/06/17 07:58:35;;;;;;;8.70;3.00;;;37.40;56.50;;;;;;5023357;28;20501;-70
2021/06/17 08:01:00;;;;;;;6.45;2.97;;;37.90;54.70;;;;;;5024046;28;20067;-70
2021/06/17 08:03:27;;;;;;;3.75;2.80;;;38.00;54.80;;;;;;5022664;28;20179;-70
2021/06/17 08:05:53;;;;;;;11.32;2.70;;;37.80;54.50;;;;;;5024199;28;20026;-71
2021/06/17 08:08:19;;;;;;;10.75;2.80;;;37.80;54.60;;;;;;5023926;28;20030;-72
2021/06/17 08:10:45;;;;;;;12.18;2.85;;;38.20;54.50;;;;;;5023911;28;20124;-70
2021/06/17 08:13:10;;;;;;;9.65;2.42;;;38.10;53.60;;;;;;5024270;28;20529;-72
2021/06/17 08:15:37;;;;;;;8.07;3.10;;;38.20;54.00;;;;;;5024070;28;20033;-70
2021/06/17 08:18:04;;;;;;;7.20;2.80;;;38.60;53.60;;;;;;5024058;28;20037;-72
2021/06/17 08:20:29;;;;;;;7.60;2.70;;;38.90;52.60;;;;;;5022961;28;20466;-72
2021/06/17 08:22:55;;;;;;;9.80;2.42;;;39.30;52.00;;;;;;5023576;28;20136;-72
2021/06/17 08:25:20;;;;;;;6.75;2.60;;;39.50;51.10;;;;;;5023152;28;20104;-72
2021/06/17 08:27:46;;;;;;;8.25;2.70;;;39.90;50.70;;;;;;5022375;28;20647;-71
2021/06/17 08:30:14;;;;;;;10.38;2.85;;;39.70;49.90;;;;;;5024119;28;20407;-70
2021/06/17 08:32:40;;;;;;;26.13;3.90;;;39.70;50.40;;;;;;5022628;28;20524;-72
2021/06/17 08:35:08;;;;;;;10.35;3.17;;;39.80;50.20;;;;;;5026392;28;20287;-72
2021/06/17 08:37:33;;;;;;;11.40;3.25;;;39.70;50.00;;;;;;5024076;28;20045;-70
2021/06/17 08:40:00;;;;;;;16.35;3.08;;;39.00;50.60;;;;;;5007186;28;20068;-69
2021/06/17 08:42:30;;;;;;;9.25;2.17;;;38.20;50.90;;;;;;5024762;28;20104;-70
2021/06/17 08:44:57;;;;;;;14.98;3.30;;;37.40;51.80;;;;;;5026092;28;20406;-69
2021/06/17 08:47:23;;;;;;;5.68;2.20;;;36.40;52.90;;;;;;5005071;28;20033;-70
2021/06/17 08:49:52;;;;;;;11.05;1.80;;;36.20;53.80;;;;;;5024533;28;20033;-71
2021/06/17 08:52:19;;;;;;;8.93;2.13;;;35.80;54.50;;;;;;5005755;28;20571;-69
2021/06/17 08:54:45;;;;;;;6.30;1.77;;;35.20;55.00;;;;;;5021981;28;20108;-69
2021/06/17 08:57:10;;;;;;;8.80;1.92;;;35.30;55.50;;;;;;5025671;28;20458;-68
2021/06/17 08:59:38;;;;;;;4.43;1.67;;;34.70;55.80;;;;;;5021486;28;20045;-68
2021/06/17 09:02:05;;;;;;;7.65;1.77;;;34.10;56.80;;;;;;5023762;28;20037;-68
2021/06/17 09:04:31;;;;;;;6.93;1.60;;;33.50;58.10;;;;;;5026634;28;20045;-68
2021/06/17 09:07:13;;;;;;;8.27;2.35;;;33.00;59.10;;;;;;5026824;28;20038;-68
2021/06/17 09:09:41;;;;;;;13.02;1.90;;;33.20;59.70;;;;;;5011051;28;20470;-69
2021/06/17 09:12:09;;;;;;;6.45;1.73;;;33.70;58.90;;;;;;5029091;28;20034;-69
2021/06/17 09:14:36;;;;;;;2.88;1.52;;;34.40;57.10;;;;;;5028512;28;20037;-68
2021/06/17 09:17:08;;;;;;;6.50;2.00;;;34.80;56.10;;;;;;5027741;28;20034;-69
2021/06/17 09:19:43;;;;;;;7.65;1.90;;;34.90;55.40;;;;;;5026653;28;20063;-68
2021/06/17 09:22:12;;;;;;;6.30;1.55;;;34.70;55.30;;;;;;5027582;28;20037;-67
2021/06/17 09:24:41;;;;;;;5.88;1.40;;;34.90;55.50;;;;;;5009778;28;20042;-68
2021/06/17 09:27:22;;;;;;;6.80;1.40;;;34.60;55.30;;;;;;5028533;28;20249;-67
2021/06/17 09:29:49;;;;;;;6.53;1.52;;;34.40;54.10;;;;;;5027829;28;20041;-68
2021/06/17 09:32:30;;;;;;;4.63;1.98;;;34.00;54.70;;;;;;5025907;28;20040;-68
2021/06/17 09:34:56;;;;;;;7.85;1.23;;;33.50;56.80;;;;;;5026390;28;20052;-68
2021/06/17 09:37:37;;;;;;;3.80;1.15;;;33.00;55.80;;;;;;5028040;28;20391;-68
2021/06/17 09:40:39;;;;;;;5.78;1.55;;;32.40;59.10;;;;;;5027153;28;20364;-68
2021/06/17 09:43:34;;;;;;;12.40;1.95;;;31.80;58.80;;;;;;5009798;28;20038;-69
2021/06/17 09:46:02;;;;;;;8.63;1.55;;;31.40;60.30;;;;;;5008303;28;20045;-69
2021/06/17 09:48:51;;;;;;;3.15;1.25;;;31.30;62.70;;;;;;5028365;28;20029;-69
2021/06/17 09:51:41;;;;;;;5.50;1.80;;;31.20;62.00;;;;;;5007423;28;20041;-69
2021/06/17 09:54:13;;;;;;;8.75;2.00;;;31.10;62.40;;;;;;5025656;28;20306;-69
2021/06/17 09:56:39;;;;;;;4.93;1.50;;;30.70;62.50;;;;;;5027617;28;20037;-69
2021/06/17 09:59:06;;;;;;;3.63;1.25;;;30.60;62.70;;;;;;5027417;28;20053;-69
2021/06/17 10:01:36;;;;;;;12.85;2.08;;;30.70;63.90;;;;;;5026949;28;20462;-69
2021/06/17 10:04:07;;;;;;;6.82;1.05;;;30.90;62.20;;;;;;5026300;28;20720;-69
2021/06/17 10:06:37;;;;;;;6.28;1.60;;;30.90;62.60;;;;;;5028517;28;20052;-69
2021/06/17 10:09:08;;;;;;;4.20;1.13;;;30.90;63.40;;;;;;5026647;28;20029;-69
2021/06/17 10:11:34;;;;;;;8.07;1.75;;;30.90;64.00;;;;;;5028077;28;20044;-69
2021/06/17 10:14:01;;;;;;;9.23;1.90;;;31.10;62.80;;;;;;5024933;28;20036;-69
2021/06/17 10:16:28;;;;;;;5.65;1.23;;;31.60;64.40;;;;;;5022609;28;20067;-69
2021/06/17 10:18:54;;;;;;;4.30;1.30;;;32.00;62.60;;;;;;5025334;28;20034;-69
2021/06/17 10:21:20;;;;;;;11.02;2.05;;;32.30;61.70;;;;;;5024823;28;20117;-68
2021/06/17 10:23:47;;;;;;;8.15;1.38;;;32.60;61.00;;;;;;5024246;28;20120;-69
2021/06/17 10:26:13;;;;;;;4.53;1.55;;;32.80;62.00;;;;;;5006385;28;20069;-68
2021/06/17 10:28:48;;;;;;;5.97;1.50;;;33.10;61.80;;;;;;5024801;28;20064;-70
2021/06/17 10:31:44;;;;;;;5.20;1.40;;;33.10;59.60;;;;;;5022799;28;20079;-69
2021/06/17 10:34:26;;;;;;;6.05;1.40;;;33.00;59.90;;;;;;5025696;28;20044;-69
2021/06/17 10:37:25;;;;;;;3.67;1.48;;;32.90;60.80;;;;;;5015900;28;20124;-69
2021/06/17 10:40:09;;;;;;;8.10;1.35;;;32.90;60.50;;;;;;5025595;28;20041;-73
2021/06/17 10:42:46;;;;;;;6.18;1.92;;;33.00;59.10;;;;;;5024688;28;20045;-70
2021/06/17 10:45:32;;;;;;;6.00;1.35;;;33.10;59.50;;;;;;5021570;28;20050;-69
2021/06/17 10:48:05;;;;;;;6.22;1.20;;;33.00;58.60;;;;;;5025186;28;20048;-71
2021/06/17 10:50:42;;;;;;;2.50;1.35;;;32.90;59.70;;;;;;5007359;28;20145;-70
2021/06/17 10:53:25;;;;;;;5.38;1.23;;;32.90;58.90;;;;;;5024867;28;20111;-71
2021/06/17 10:56:07;;;;;;;5.50;1.67;;;32.70;59.30;;;;;;5005541;28;20040;-69
2021/06/17 10:58:42;;;;;;;7.53;1.65;;;32.70;58.80;;;;;;5025982;28;20143;-68
2021/06/17 11:01:24;;;;;;;6.43;1.77;;;32.60;60.20;;;;;;5041681;28;20037;-69
2021/06/17 11:04:11;;;;;;;8.35;1.75;;;32.50;59.70;;;;;;5005745;28;20033;-69
2021/06/17 11:06:49;;;;;;;5.18;1.80;;;32.70;60.80;;;;;;5024672;28;20489;-69
2021/06/17 11:09:46;;;;;;;7.65;1.58;;;33.10;59.30;;;;;;5007111;28;20044;-68
2021/06/17 11:12:17;;;;;;;5.28;1.50;;;33.10;59.70;;;;;;5023583;28;20543;-70
2021/06/17 11:14:44;;;;;;;7.78;1.35;;;33.20;58.40;;;;;;5021728;28;20612;-70
2021/06/17 11:17:31;;;;;;;19.75;1.60;;;33.10;59.90;;;;;;5023644;28;20055;-68
2021/06/17 11:20:04;;;;;;;3.72;1.48;;;33.00;60.20;;;;;;5011296;28;20030;-71
2021/06/17 11:22:41;;;;;;;10.30;1.77;;;33.00;61.40;;;;;;5025564;28;20040;-71
2021/06/17 11:25:28;;;;;;;3.92;1.27;;;33.00;59.60;;;;;;5025183;28;20029;-69
2021/06/17 11:28:01;;;;;;;11.50;1.50;;;33.00;59.60;;;;;;5023976;28;20037;-73
2021/06/17 11:30:39;;;;;;;4.85;1.33;;;33.00;60.20;;;;;;5024384;28;20121;-70
2021/06/17 11:33:19;;;;;;;3.67;1.42;;;33.10;58.90;;;;;;5026580;28;20120;-70
2021/06/17 11:35:58;;;;;;;9.02;1.77;;;33.10;59.20;;;;;;5025918;28;20041;-69
2021/06/17 11:38:26;;;;;;;6.80;1.60;;;33.10;58.90;;;;;;5010185;28;20570;-70
2021/06/17 11:40:52;;;;;;;7.85;1.90;;;33.20;59.00;;;;;;5020410;28;20033;-70
2021/06/17 11:43:21;;;;;;;6.57;1.67;;;33.40;59.80;;;;;;5025501;28;20128;-70
2021/06/17 11:45:47;;;;;;;7.53;2.22;;;33.50;58.50;;;;;;5025719;28;20378;-70
2021/06/17 11:48:13;;;;;;;7.47;1.67;;;33.70;58.20;;;;;;5026303;28;20029;-71
2021/06/17 11:51:04;;;;;;;5.10;1.80;;;33.40;57.90;;;;;;5010589;28;20803;-71
2021/06/17 11:53:30;;;;;;;13.63;2.03;;;33.10;60.50;;;;;;5008347;28;20037;-71
2021/06/17 11:55:57;;;;;;;10.02;1.90;;;33.00;60.60;;;;;;5027410;28;20026;-69
2021/06/17 11:58:28;;;;;;;9.90;1.98;;;32.80;60.30;;;;;;5027214;28;20029;-70
2021/06/17 12:00:54;;;;;;;13.07;1.55;;;33.00;61.00;;;;;;5025617;28;20103;-69
2021/06/17 12:03:24;;;;;;;6.75;1.35;;;33.20;59.20;;;;;;5007360;28;20636;-69
2021/06/17 12:06:06;;;;;;;6.07;1.45;;;33.30;57.20;;;;;;5009541;28;20060;-71
2021/06/17 12:08:32;;;;;;;3.33;1.30;;;33.10;57.30;;;;;;5026290;28;20092;-71
2021/06/17 12:11:01;;;;;;;7.85;1.33;;;33.10;57.00;;;;;;5025766;28;20022;-69
2021/06/17 12:13:27;;;;;;;;;;;33.10;57.70;;;;;;5010043;28;20049;-71
2021/06/17 12:15:57;;;;;;;5.30;1.08;;;32.90;56.90;;;;;;5008371;28;19977;-71
2021/06/17 12:18:23;;;;;;;5.97;1.40;;;33.00;57.90;;;;;;5026638;28;20068;-70
2021/06/17 12:20:50;;;;;;;3.88;1.17;;;33.00;57.10;;;;;;5027255;28;20061;-69
2021/06/17 12:23:28;;;;;;;5.30;0.90;;;32.90;57.20;;;;;;5027919;28;20037;-68
2021/06/17 12:25:53;;;;;;;4.68;0.80;;;32.90;58.00;;;;;;5027559;28;20033;-70
2021/06/17 12:28:19;;;;;;;5.97;1.42;;;32.80;57.90;;;;;;5027750;28;20172;-70
2021/06/17 12:30:49;;;;;;;15.57;2.88;;;32.80;57.40;;;;;;5026824;28;20157;-71
2021/06/17 12:33:26;;;;;;;10.65;1.55;;;32.70;58.60;;;;;;5026996;28;20056;-70
2021/06/17 12:36:01;;;;;;;10.13;1.70;;;32.60;59.30;;;;;;5027058;28;20041;-71
2021/06/17 12:38:41;;;;;;;10.60;1.23;;;32.40;59.40;;;;;;5026263;28;20045;-71
2021/06/17 12:41:13;;;;;;;8.73;2.95;;;32.30;60.70;;;;;;5008313;28;20038;-70
2021/06/17 12:43:53;;;;;;;5.47;1.65;;;32.40;60.50;;;;;;5029514;28;20574;-70
2021/06/17 12:46:37;;;;;;;11.70;1.98;;;32.40;59.70;;;;;;5008632;28;20076;-69
2021/06/17 12:54:31;;;;;;;8.20;1.50;;;32.10;60.50;;;;;;5027352;28;20179;-69
2021/06/17 12:57:18;;;;;;;3.85;1.20;;;32.10;61.10;;;;;;5029411;28;20096;-69
2021/06/17 12:59:54;;;;;;;6.85;1.70;;;32.10;61.10;;;;;;5025963;28;20570;-69
2021/06/17 13:02:22;;;;;;;8.35;1.27;;;31.90;61.70;;;;;;5026448;28;20041;-69
2021/06/17 13:05:00;;;;;;;7.38;1.30;;;31.80;61.40;;;;;;5007098;28;20068;-69
2021/06/17 13:07:26;;;;;;;4.50;0.77;;;31.80;62.20;;;;;;5025347;28;20095;-70